sensor_id;sensor_type;location;lat;lon;timestamp;P1;durP1;ratioP1;P2;durP2;ratioP2
17193;SDS011;8713;48.388;10.928;2023-04-09T07:21:05;14.40;;;8.48;;
17193;SDS011;8713;48.388;10.928;2023-04-09T07:22:15;17.23;;;9.40;;
17193;SDS011;8713;48.388;10.928;2023-04-09T07:23:24;15.30;;;9.60;;
17193;SDS011;8713;48.388;10.928;2023-04-09T07:24:34;13.32;;;8.73;;
17193;SDS011;8713;48.388;10.928;2023-04-09T07:25:43;15.60;;;9.32;;
17193;SDS011;8713;48.388;10.928;2023-04-09T07:26:53;15.40;;;9.63;;
17193;SDS011;8713;48.388;10.928;2023-04-09T07:28:03;13.63;;;9.10;;
17193;SDS011;8713;48.388;10.928;2023-04-09T07:29:12;15.32;;;9.60;;
17193;SDS011;8713;48.388;10.928;2023-04-09T07:30:22;15.20;;;9.80;;
17193;SDS011;8713;48.388;10.928;2023-04-09T07:31:31;15.07;;;9.27;;
17193;SDS011;8713;48.388;10.928;2023-04-09T07:32:41;12.93;;;8.52;;
17193;SDS011;8713;48.388;10.928;2023-04-09T07:33:50;13.75;;;9.18;;
17193;SDS011;8713;48.388;10.928;2023-04-09T07:35:01;16.08;;;8.90;;
17193;SDS011;8713;48.388;10.928;2023-04-09T07:36:13;15.27;;;8.63;;
17193;SDS011;8713;48.388;10.928;2023-04-09T07:37:23;14.07;;;8.57;;
17193;SDS011;8713;48.388;10.928;2023-04-09T07:38:34;14.82;;;8.73;;
17193;SDS011;8713;48.388;10.928;2023-04-09T07:39:44;15.40;;;9.00;;
17193;SDS011;8713;48.388;10.928;2023-04-09T07:40:54;13.48;;;8.80;;
17193;SDS011;8713;48.388;10.928;2023-04-09T07:42:05;15.43;;;9.52;;
17193;SDS011;8713;48.388;10.928;2023-04-09T07:43:15;12.90;;;8.50;;
17193;SDS011;8713;48.388;10.928;2023-04-09T07:44:25;13.30;;;8.57;;
17193;SDS011;8713;48.388;10.928;2023-04-09T07:45:34;14.35;;;8.43;;
17193;SDS011;8713;48.388;10.928;2023-04-09T07:46:44;14.60;;;8.82;;
17193;SDS011;8713;48.388;10.928;2023-04-09T07:47:53;14.23;;;9.52;;
17193;SDS011;8713;48.388;10.928;2023-04-09T07:49:03;15.02;;;9.55;;
17193;SDS011;8713;48.388;10.928;2023-04-09T07:50:12;15.80;;;9.82;;
17193;SDS011;8713;48.388;10.928;2023-04-09T07:51:22;14.75;;;9.57;;
17193;SDS011;8713;48.388;10.928;2023-04-09T07:52:32;15.40;;;9.35;;
17193;SDS011;8713;48.388;10.928;2023-04-09T07:53:42;15.25;;;9.07;;
17193;SDS011;8713;48.388;10.928;2023-04-09T07:54:51;15.63;;;9.60;;
17193;SDS011;8713;48.388;10.928;2023-04-09T07:56:01;15.98;;;9.63;;
17193;SDS011;8713;48.388;10.928;2023-04-09T07:57:10;14.63;;;9.38;;
17193;SDS011;8713;48.388;10.928;2023-04-09T07:58:20;14.38;;;9.20;;
17193;SDS011;8713;48.388;10.928;2023-04-09T07:59:29;13.18;;;8.48;;
17193;SDS011;8713;48.388;10.928;2023-04-09T08:00:39;13.93;;;8.77;;
17193;SDS011;8713;48.388;10.928;2023-04-09T08:01:48;12.65;;;8.68;;
17193;SDS011;8713;48.388;10.928;2023-04-09T08:03:17;11.43;;;7.57;;
17193;SDS011;8713;48.388;10.928;2023-04-09T08:04:45;11.80;;;7.80;;
17193;SDS011;8713;48.388;10.928;2023-04-09T08:06:14;15.25;;;8.98;;
17193;SDS011;8713;48.388;10.928;2023-04-09T08:07:42;12.65;;;8.77;;
17193;SDS011;8713;48.388;10.928;2023-04-09T08:09:10;13.07;;;8.32;;
17193;SDS011;8713;48.388;10.928;2023-04-09T08:10:40;12.68;;;8.27;;
17193;SDS011;8713;48.388;10.928;2023-04-09T08:12:09;13.05;;;8.68;;
17193;SDS011;8713;48.388;10.928;2023-04-09T08:13:39;11.60;;;7.88;;
17193;SDS011;8713;48.388;10.928;2023-04-09T08:15:09;12.98;;;8.10;;
17193;SDS011;8713;48.388;10.928;2023-04-09T08:16:39;11.85;;;8.32;;
17193;SDS011;8713;48.388;10.928;2023-04-09T08:18:10;10.57;;;7.32;;
17193;SDS011;8713;48.388;10.928;2023-04-09T08:19:40;10.60;;;7.32;;
17193;SDS011;8713;48.388;10.928;2023-04-09T08:21:09;9.90;;;7.20;;
17193;SDS011;8713;48.388;10.928;2023-04-09T08:22:39;9.10;;;6.30;;
17193;SDS011;8713;48.388;10.928;2023-04-09T08:24:08;9.48;;;6.28;;
17193;SDS011;8713;48.388;10.928;2023-04-09T08:25:21;9.50;;;6.07;;
17193;SDS011;8713;48.388;10.928;2023-04-09T08:26:30;9.02;;;6.38;;
17193;SDS011;8713;48.388;10.928;2023-04-09T08:27:40;11.13;;;5.82;;
17193;SDS011;8713;48.388;10.928;2023-04-09T08:28:50;9.20;;;6.28;;
17193;SDS011;8713;48.388;10.928;2023-04-09T08:30:14;9.10;;;5.97;;
17193;SDS011;8713;48.388;10.928;2023-04-09T08:31:43;9.13;;;5.95;;
17193;SDS011;8713;48.388;10.928;2023-04-09T08:33:12;8.73;;;5.97;;
17193;SDS011;8713;48.388;10.928;2023-04-09T08:34:41;8.23;;;5.57;;
17193;SDS011;8713;48.388;10.928;2023-04-09T08:36:08;8.57;;;5.18;;
17193;SDS011;8713;48.388;10.928;2023-04-09T08:37:36;9.13;;;5.70;;
17193;SDS011;8713;48.388;10.928;2023-04-09T08:38:46;8.05;;;5.70;;
17193;SDS011;8713;48.388;10.928;2023-04-09T08:40:01;10.07;;;5.72;;
17193;SDS011;8713;48.388;10.928;2023-04-09T08:41:29;7.20;;;4.88;;
17193;SDS011;8713;48.388;10.928;2023-04-09T08:42:57;9.13;;;5.60;;
17193;SDS011;8713;48.388;10.928;2023-04-09T08:44:26;12.10;;;5.78;;
17193;SDS011;8713;48.388;10.928;2023-04-09T08:45:54;8.32;;;5.57;;
17193;SDS011;8713;48.388;10.928;2023-04-09T08:47:21;10.18;;;5.13;;
17193;SDS011;8713;48.388;10.928;2023-04-09T08:48:32;7.95;;;5.20;;
17193;SDS011;8713;48.388;10.928;2023-04-09T08:49:48;6.95;;;4.65;;
17193;SDS011;8713;48.388;10.928;2023-04-09T08:50:58;7.20;;;5.07;;
17193;SDS011;8713;48.388;10.928;2023-04-09T08:52:11;7.20;;;5.22;;
17193;SDS011;8713;48.388;10.928;2023-04-09T08:53:20;8.80;;;5.57;;
17193;SDS011;8713;48.388;10.928;2023-04-09T08:54:31;9.55;;;5.43;;
17193;SDS011;8713;48.388;10.928;2023-04-09T08:55:43;8.55;;;5.35;;
17193;SDS011;8713;48.388;10.928;2023-04-09T08:56:53;6.88;;;5.07;;
17193;SDS011;8713;48.388;10.928;2023-04-09T08:58:05;8.20;;;5.38;;
17193;SDS011;8713;48.388;10.928;2023-04-09T08:59:24;6.50;;;4.70;;
17193;SDS011;8713;48.388;10.928;2023-04-09T09:00:40;7.53;;;5.20;;
17193;SDS011;8713;48.388;10.928;2023-04-09T09:02:08;8.30;;;5.00;;
17193;SDS011;8713;48.388;10.928;2023-04-09T09:03:51;8.73;;;5.50;;
17193;SDS011;8713;48.388;10.928;2023-04-09T09:05:38;8.00;;;4.60;;
17193;SDS011;8713;48.388;10.928;2023-04-09T09:07:08;8.75;;;4.55;;
17193;SDS011;8713;48.388;10.928;2023-04-09T09:08:36;7.80;;;4.18;;
17193;SDS011;8713;48.388;10.928;2023-04-09T09:10:04;8.40;;;5.18;;
17193;SDS011;8713;48.388;10.928;2023-04-09T09:11:35;6.65;;;4.30;;
17193;SDS011;8713;48.388;10.928;2023-04-09T09:13:21;7.80;;;4.68;;
17193;SDS011;8713;48.388;10.928;2023-04-09T09:14:53;6.60;;;4.30;;
17193;SDS011;8713;48.388;10.928;2023-04-09T09:16:22;8.50;;;5.97;;
17193;SDS011;8713;48.388;10.928;2023-04-09T09:17:52;6.32;;;4.85;;
17193;SDS011;8713;48.388;10.928;2023-04-09T09:20:52;7.38;;;4.95;;
17193;SDS011;8713;48.388;10.928;2023-04-09T09:22:49;6.32;;;4.03;;
17193;SDS011;8713;48.388;10.928;2023-04-09T09:24:19;8.00;;;5.72;;
17193;SDS011;8713;48.388;10.928;2023-04-09T09:25:47;8.18;;;5.70;;
17193;SDS011;8713;48.388;10.928;2023-04-09T09:26:57;7.35;;;4.93;;
17193;SDS011;8713;48.388;10.928;2023-04-09T09:28:07;7.45;;;5.15;;
17193;SDS011;8713;48.388;10.928;2023-04-09T09:29:19;7.85;;;4.85;;
17193;SDS011;8713;48.388;10.928;2023-04-09T09:30:29;7.25;;;5.15;;
17193;SDS011;8713;48.388;10.928;2023-04-09T09:31:47;9.25;;;5.90;;
17193;SDS011;8713;48.388;10.928;2023-04-09T09:33:10;8.68;;;5.53;;
17193;SDS011;8713;48.388;10.928;2023-04-09T09:34:21;8.18;;;5.30;;
17193;SDS011;8713;48.388;10.928;2023-04-09T09:35:53;8.15;;;6.15;;
17193;SDS011;8713;48.388;10.928;2023-04-09T09:37:25;7.90;;;5.10;;
17193;SDS011;8713;48.388;10.928;2023-04-09T09:38:53;8.20;;;4.95;;
17193;SDS011;8713;48.388;10.928;2023-04-09T09:40:06;8.43;;;4.53;;
17193;SDS011;8713;48.388;10.928;2023-04-09T09:41:16;7.20;;;5.25;;
17193;SDS011;8713;48.388;10.928;2023-04-09T09:42:28;8.50;;;5.82;;
17193;SDS011;8713;48.388;10.928;2023-04-09T09:43:40;7.10;;;4.68;;
17193;SDS011;8713;48.388;10.928;2023-04-09T09:44:50;7.63;;;5.28;;
17193;SDS011;8713;48.388;10.928;2023-04-09T09:46:02;8.18;;;5.78;;
17193;SDS011;8713;48.388;10.928;2023-04-09T09:47:11;7.75;;;5.20;;
17193;SDS011;8713;48.388;10.928;2023-04-09T09:48:21;8.80;;;5.55;;
17193;SDS011;8713;48.388;10.928;2023-04-09T09:49:30;7.25;;;5.15;;
17193;SDS011;8713;48.388;10.928;2023-04-09T09:50:40;7.93;;;5.53;;
17193;SDS011;8713;48.388;10.928;2023-04-09T09:51:50;8.85;;;5.90;;
17193;SDS011;8713;48.388;10.928;2023-04-09T09:53:02;8.73;;;5.22;;
17193;SDS011;8713;48.388;10.928;2023-04-09T09:54:16;8.48;;;5.35;;
17193;SDS011;8713;48.388;10.928;2023-04-09T09:55:32;9.15;;;5.80;;
17193;SDS011;8713;48.388;10.928;2023-04-09T09:56:46;7.25;;;5.03;;
17193;SDS011;8713;48.388;10.928;2023-04-09T09:58:00;8.35;;;5.43;;
17193;SDS011;8713;48.388;10.928;2023-04-09T10:00:29;7.75;;;5.32;;
17193;SDS011;8713;48.388;10.928;2023-04-09T10:01:40;7.85;;;5.47;;
17193;SDS011;8713;48.388;10.928;2023-04-09T10:02:58;8.05;;;5.57;;
17193;SDS011;8713;48.388;10.928;2023-04-09T10:04:20;8.68;;;5.63;;
17193;SDS011;8713;48.388;10.928;2023-04-09T10:05:31;8.93;;;6.30;;
17193;SDS011;8713;48.388;10.928;2023-04-09T10:06:44;8.88;;;6.22;;
17193;SDS011;8713;48.388;10.928;2023-04-09T10:07:54;7.60;;;6.00;;
17193;SDS011;8713;48.388;10.928;2023-04-09T10:09:06;9.35;;;6.13;;
17193;SDS011;8713;48.388;10.928;2023-04-09T10:10:31;7.43;;;5.60;;
17193;SDS011;8713;48.388;10.928;2023-04-09T10:11:41;8.20;;;5.75;;
17193;SDS011;8713;48.388;10.928;2023-04-09T10:12:53;8.43;;;5.60;;
17193;SDS011;8713;48.388;10.928;2023-04-09T10:14:03;8.63;;;5.00;;
17193;SDS011;8713;48.388;10.928;2023-04-09T10:15:14;9.52;;;5.80;;
17193;SDS011;8713;48.388;10.928;2023-04-09T10:16:24;7.47;;;5.38;;
17193;SDS011;8713;48.388;10.928;2023-04-09T10:17:37;8.60;;;5.38;;
17193;SDS011;8713;48.388;10.928;2023-04-09T10:18:47;8.30;;;6.22;;
17193;SDS011;8713;48.388;10.928;2023-04-09T10:20:40;7.57;;;5.63;;
17193;SDS011;8713;48.388;10.928;2023-04-09T10:21:55;7.35;;;5.28;;
17193;SDS011;8713;48.388;10.928;2023-04-09T10:23:10;7.95;;;5.53;;
17193;SDS011;8713;48.388;10.928;2023-04-09T10:24:41;10.25;;;6.95;;
17193;SDS011;8713;48.388;10.928;2023-04-09T10:25:55;8.45;;;6.03;;
17193;SDS011;8713;48.388;10.928;2023-04-09T10:27:11;9.45;;;5.85;;
17193;SDS011;8713;48.388;10.928;2023-04-09T10:28:24;7.70;;;5.68;;
17193;SDS011;8713;48.388;10.928;2023-04-09T10:29:47;9.10;;;6.00;;
17193;SDS011;8713;48.388;10.928;2023-04-09T10:30:59;9.60;;;6.43;;
17193;SDS011;8713;48.388;10.928;2023-04-09T10:32:09;8.32;;;6.22;;
17193;SDS011;8713;48.388;10.928;2023-04-09T10:33:23;8.10;;;5.65;;
17193;SDS011;8713;48.388;10.928;2023-04-09T10:34:42;9.15;;;5.80;;
17193;SDS011;8713;48.388;10.928;2023-04-09T10:35:53;7.57;;;5.25;;
17193;SDS011;8713;48.388;10.928;2023-04-09T10:37:07;7.63;;;5.43;;
17193;SDS011;8713;48.388;10.928;2023-04-09T10:38:38;7.03;;;5.15;;
17193;SDS011;8713;48.388;10.928;2023-04-09T10:39:50;8.57;;;5.30;;
17193;SDS011;8713;48.388;10.928;2023-04-09T10:42:46;7.88;;;5.00;;
17193;SDS011;8713;48.388;10.928;2023-04-09T10:43:55;7.15;;;4.82;;
17193;SDS011;8713;48.388;10.928;2023-04-09T10:45:10;7.18;;;4.72;;
17193;SDS011;8713;48.388;10.928;2023-04-09T10:46:35;7.68;;;4.70;;
17193;SDS011;8713;48.388;10.928;2023-04-09T10:47:48;8.15;;;5.55;;
17193;SDS011;8713;48.388;10.928;2023-04-09T10:49:11;9.25;;;5.90;;
17193;SDS011;8713;48.388;10.928;2023-04-09T10:50:31;8.00;;;5.28;;
17193;SDS011;8713;48.388;10.928;2023-04-09T10:53:22;9.50;;;5.30;;
17193;SDS011;8713;48.388;10.928;2023-04-09T10:55:47;8.40;;;5.38;;
17193;SDS011;8713;48.388;10.928;2023-04-09T10:57:17;7.88;;;5.43;;
17193;SDS011;8713;48.388;10.928;2023-04-09T10:58:35;9.25;;;5.93;;
17193;SDS011;8713;48.388;10.928;2023-04-09T10:59:54;8.77;;;5.70;;
17193;SDS011;8713;48.388;10.928;2023-04-09T11:01:04;8.52;;;5.15;;
17193;SDS011;8713;48.388;10.928;2023-04-09T11:03:37;8.30;;;5.53;;
17193;SDS011;8713;48.388;10.928;2023-04-09T11:04:59;8.52;;;5.68;;
17193;SDS011;8713;48.388;10.928;2023-04-09T11:06:38;7.85;;;5.15;;
17193;SDS011;8713;48.388;10.928;2023-04-09T11:07:53;7.80;;;5.57;;
17193;SDS011;8713;48.388;10.928;2023-04-09T11:09:11;8.73;;;5.57;;
17193;SDS011;8713;48.388;10.928;2023-04-09T11:10:30;8.60;;;5.40;;
17193;SDS011;8713;48.388;10.928;2023-04-09T11:12:00;9.23;;;5.38;;
17193;SDS011;8713;48.388;10.928;2023-04-09T11:13:16;7.65;;;5.07;;
17193;SDS011;8713;48.388;10.928;2023-04-09T11:14:36;8.50;;;6.03;;
17193;SDS011;8713;48.388;10.928;2023-04-09T11:15:49;8.70;;;5.47;;
17193;SDS011;8713;48.388;10.928;2023-04-09T11:16:58;7.75;;;5.55;;
17193;SDS011;8713;48.388;10.928;2023-04-09T11:18:08;7.00;;;5.28;;
17193;SDS011;8713;48.388;10.928;2023-04-09T11:19:51;9.10;;;6.27;;
17193;SDS011;8713;48.388;10.928;2023-04-09T11:21:01;10.32;;;5.65;;
17193;SDS011;8713;48.388;10.928;2023-04-09T11:22:11;7.13;;;5.15;;
17193;SDS011;8713;48.388;10.928;2023-04-09T11:23:21;8.00;;;5.30;;
17193;SDS011;8713;48.388;10.928;2023-04-09T11:24:41;7.72;;;5.07;;
17193;SDS011;8713;48.388;10.928;2023-04-09T11:25:51;7.13;;;4.80;;
17193;SDS011;8713;48.388;10.928;2023-04-09T11:27:01;6.10;;;4.45;;
17193;SDS011;8713;48.388;10.928;2023-04-09T11:28:10;6.75;;;4.82;;
17193;SDS011;8713;48.388;10.928;2023-04-09T11:29:21;6.00;;;4.53;;
17193;SDS011;8713;48.388;10.928;2023-04-09T11:30:33;5.78;;;3.88;;
17193;SDS011;8713;48.388;10.928;2023-04-09T11:31:47;6.30;;;4.82;;
17193;SDS011;8713;48.388;10.928;2023-04-09T11:32:56;7.82;;;4.80;;
17193;SDS011;8713;48.388;10.928;2023-04-09T11:34:09;8.88;;;5.40;;
17193;SDS011;8713;48.388;10.928;2023-04-09T11:35:22;7.97;;;5.40;;
17193;SDS011;8713;48.388;10.928;2023-04-09T11:36:33;9.07;;;5.82;;
17193;SDS011;8713;48.388;10.928;2023-04-09T11:37:44;7.78;;;5.28;;
17193;SDS011;8713;48.388;10.928;2023-04-09T11:39:07;7.22;;;4.57;;
17193;SDS011;8713;48.388;10.928;2023-04-09T11:40:20;7.68;;;5.13;;
17193;SDS011;8713;48.388;10.928;2023-04-09T11:41:51;10.85;;;6.13;;
17193;SDS011;8713;48.388;10.928;2023-04-09T11:43:19;8.95;;;5.90;;
17193;SDS011;8713;48.388;10.928;2023-04-09T11:44:47;8.85;;;5.65;;
17193;SDS011;8713;48.388;10.928;2023-04-09T11:46:16;8.60;;;5.70;;
17193;SDS011;8713;48.388;10.928;2023-04-09T11:47:44;8.52;;;5.60;;
17193;SDS011;8713;48.388;10.928;2023-04-09T11:49:15;6.68;;;4.45;;
17193;SDS011;8713;48.388;10.928;2023-04-09T11:50:45;6.60;;;4.60;;
17193;SDS011;8713;48.388;10.928;2023-04-09T11:52:15;7.53;;;5.10;;
17193;SDS011;8713;48.388;10.928;2023-04-09T11:53:29;7.15;;;4.90;;
17193;SDS011;8713;48.388;10.928;2023-04-09T11:54:58;8.15;;;5.43;;
17193;SDS011;8713;48.388;10.928;2023-04-09T11:56:28;6.72;;;4.57;;
17193;SDS011;8713;48.388;10.928;2023-04-09T11:57:40;8.10;;;5.00;;
17193;SDS011;8713;48.388;10.928;2023-04-09T11:59:03;7.28;;;5.20;;
17193;SDS011;8713;48.388;10.928;2023-04-09T12:00:32;6.93;;;4.65;;
17193;SDS011;8713;48.388;10.928;2023-04-09T12:02:00;8.65;;;5.70;;
17193;SDS011;8713;48.388;10.928;2023-04-09T12:03:29;7.75;;;5.70;;
17193;SDS011;8713;48.388;10.928;2023-04-09T12:05:01;8.45;;;5.50;;
17193;SDS011;8713;48.388;10.928;2023-04-09T12:06:32;9.05;;;6.15;;
17193;SDS011;8713;48.388;10.928;2023-04-09T12:08:08;7.07;;;4.45;;
17193;SDS011;8713;48.388;10.928;2023-04-09T12:09:45;6.55;;;4.68;;
17193;SDS011;8713;48.388;10.928;2023-04-09T12:11:16;7.90;;;5.10;;
17193;SDS011;8713;48.388;10.928;2023-04-09T12:12:39;10.10;;;5.38;;
17193;SDS011;8713;48.388;10.928;2023-04-09T12:14:14;8.07;;;5.32;;
17193;SDS011;8713;48.388;10.928;2023-04-09T12:15:44;7.22;;;5.03;;
17193;SDS011;8713;48.388;10.928;2023-04-09T12:17:12;6.93;;;5.22;;
17193;SDS011;8713;48.388;10.928;2023-04-09T12:18:42;8.23;;;5.20;;
17193;SDS011;8713;48.388;10.928;2023-04-09T12:20:12;7.60;;;5.47;;
17193;SDS011;8713;48.388;10.928;2023-04-09T12:21:52;7.45;;;4.80;;
17193;SDS011;8713;48.388;10.928;2023-04-09T12:23:26;6.93;;;4.97;;
17193;SDS011;8713;48.388;10.928;2023-04-09T12:24:55;7.38;;;5.13;;
17193;SDS011;8713;48.388;10.928;2023-04-09T12:26:25;6.90;;;4.50;;
17193;SDS011;8713;48.388;10.928;2023-04-09T12:27:54;7.32;;;5.10;;
17193;SDS011;8713;48.388;10.928;2023-04-09T12:29:24;7.32;;;4.75;;
17193;SDS011;8713;48.388;10.928;2023-04-09T12:30:54;7.82;;;5.20;;
17193;SDS011;8713;48.388;10.928;2023-04-09T12:32:24;7.78;;;5.05;;
17193;SDS011;8713;48.388;10.928;2023-04-09T12:33:56;8.57;;;5.32;;
17193;SDS011;8713;48.388;10.928;2023-04-09T12:35:24;7.38;;;4.95;;
17193;SDS011;8713;48.388;10.928;2023-04-09T12:36:52;8.75;;;5.45;;
17193;SDS011;8713;48.388;10.928;2023-04-09T12:38:21;6.80;;;4.68;;
17193;SDS011;8713;48.388;10.928;2023-04-09T12:39:51;6.93;;;4.57;;
17193;SDS011;8713;48.388;10.928;2023-04-09T12:41:19;6.88;;;4.75;;
17193;SDS011;8713;48.388;10.928;2023-04-09T12:42:47;6.95;;;4.93;;
17193;SDS011;8713;48.388;10.928;2023-04-09T12:44:16;7.18;;;4.35;;
17193;SDS011;8713;48.388;10.928;2023-04-09T12:45:44;6.25;;;4.30;;
17193;SDS011;8713;48.388;10.928;2023-04-09T12:47:08;7.32;;;5.05;;
17193;SDS011;8713;48.388;10.928;2023-04-09T12:48:17;9.70;;;4.75;;
17193;SDS011;8713;48.388;10.928;2023-04-09T12:49:27;6.97;;;4.57;;
17193;SDS011;8713;48.388;10.928;2023-04-09T12:50:37;6.88;;;4.78;;
17193;SDS011;8713;48.388;10.928;2023-04-09T12:51:46;7.03;;;5.20;;
17193;SDS011;8713;48.388;10.928;2023-04-09T12:52:56;7.35;;;5.00;;
17193;SDS011;8713;48.388;10.928;2023-04-09T12:54:05;7.55;;;5.20;;
17193;SDS011;8713;48.388;10.928;2023-04-09T12:55:15;7.00;;;4.90;;
17193;SDS011;8713;48.388;10.928;2023-04-09T12:56:25;6.68;;;4.88;;
17193;SDS011;8713;48.388;10.928;2023-04-09T12:57:38;7.55;;;5.45;;
17193;SDS011;8713;48.388;10.928;2023-04-09T12:58:53;7.18;;;4.90;;
17193;SDS011;8713;48.388;10.928;2023-04-09T13:00:03;8.75;;;6.13;;
17193;SDS011;8713;48.388;10.928;2023-04-09T13:01:17;9.43;;;5.70;;
17193;SDS011;8713;48.388;10.928;2023-04-09T13:02:36;8.65;;;5.25;;
17193;SDS011;8713;48.388;10.928;2023-04-09T13:03:47;7.50;;;4.55;;
17193;SDS011;8713;48.388;10.928;2023-04-09T13:05:13;7.57;;;5.13;;
17193;SDS011;8713;48.388;10.928;2023-04-09T13:06:28;8.18;;;4.88;;
17193;SDS011;8713;48.388;10.928;2023-04-09T13:07:41;7.93;;;5.32;;
17193;SDS011;8713;48.388;10.928;2023-04-09T13:09:07;6.35;;;4.18;;
17193;SDS011;8713;48.388;10.928;2023-04-09T13:10:21;5.25;;;3.78;;
17193;SDS011;8713;48.388;10.928;2023-04-09T13:11:33;6.00;;;4.20;;
17193;SDS011;8713;48.388;10.928;2023-04-09T13:12:43;6.25;;;4.28;;
17193;SDS011;8713;48.388;10.928;2023-04-09T13:13:53;6.63;;;4.00;;
17193;SDS011;8713;48.388;10.928;2023-04-09T13:15:02;7.97;;;5.45;;
17193;SDS011;8713;48.388;10.928;2023-04-09T13:16:12;7.93;;;5.00;;
17193;SDS011;8713;48.388;10.928;2023-04-09T13:17:31;6.32;;;4.70;;
17193;SDS011;8713;48.388;10.928;2023-04-09T13:18:42;6.63;;;4.43;;
17193;SDS011;8713;48.388;10.928;2023-04-09T13:20:10;7.32;;;5.03;;
17193;SDS011;8713;48.388;10.928;2023-04-09T13:21:38;6.32;;;4.75;;
17193;SDS011;8713;48.388;10.928;2023-04-09T13:23:07;6.53;;;4.32;;
17193;SDS011;8713;48.388;10.928;2023-04-09T13:24:35;6.05;;;4.38;;
17193;SDS011;8713;48.388;10.928;2023-04-09T13:26:04;6.82;;;4.57;;
17193;SDS011;8713;48.388;10.928;2023-04-09T13:27:33;7.80;;;5.30;;
17193;SDS011;8713;48.388;10.928;2023-04-09T13:28:46;8.02;;;5.32;;
17193;SDS011;8713;48.388;10.928;2023-04-09T13:30:14;7.15;;;4.90;;
17193;SDS011;8713;48.388;10.928;2023-04-09T13:31:43;7.65;;;5.47;;
17193;SDS011;8713;48.388;10.928;2023-04-09T13:33:11;7.35;;;4.50;;
17193;SDS011;8713;48.388;10.928;2023-04-09T13:34:39;6.05;;;4.15;;
17193;SDS011;8713;48.388;10.928;2023-04-09T13:36:08;6.75;;;4.50;;
17193;SDS011;8713;48.388;10.928;2023-04-09T13:37:36;6.80;;;4.82;;
17193;SDS011;8713;48.388;10.928;2023-04-09T13:39:04;7.95;;;4.72;;
17193;SDS011;8713;48.388;10.928;2023-04-09T13:40:32;7.78;;;4.85;;
17193;SDS011;8713;48.388;10.928;2023-04-09T13:42:01;5.40;;;3.88;;
17193;SDS011;8713;48.388;10.928;2023-04-09T13:43:29;7.72;;;4.45;;
17193;SDS011;8713;48.388;10.928;2023-04-09T13:44:58;5.00;;;3.58;;
17193;SDS011;8713;48.388;10.928;2023-04-09T13:46:26;7.40;;;4.85;;
17193;SDS011;8713;48.388;10.928;2023-04-09T13:47:55;6.97;;;4.95;;
17193;SDS011;8713;48.388;10.928;2023-04-09T13:49:23;6.88;;;4.35;;
17193;SDS011;8713;48.388;10.928;2023-04-09T13:50:53;5.82;;;4.00;;
17193;SDS011;8713;48.388;10.928;2023-04-09T13:52:21;7.07;;;4.88;;
17193;SDS011;8713;48.388;10.928;2023-04-09T13:53:50;7.05;;;4.55;;
17193;SDS011;8713;48.388;10.928;2023-04-09T13:55:19;6.82;;;4.45;;
17193;SDS011;8713;48.388;10.928;2023-04-09T13:56:47;5.60;;;3.90;;
17193;SDS011;8713;48.388;10.928;2023-04-09T13:58:16;5.70;;;4.20;;
17193;SDS011;8713;48.388;10.928;2023-04-09T13:59:45;6.82;;;4.53;;
17193;SDS011;8713;48.388;10.928;2023-04-09T14:01:13;6.85;;;4.63;;
17193;SDS011;8713;48.388;10.928;2023-04-09T14:02:42;6.20;;;4.53;;
17193;SDS011;8713;48.388;10.928;2023-04-09T14:04:10;6.03;;;4.10;;
17193;SDS011;8713;48.388;10.928;2023-04-09T14:05:38;7.15;;;4.70;;
17193;SDS011;8713;48.388;10.928;2023-04-09T14:07:07;7.38;;;4.43;;
17193;SDS011;8713;48.388;10.928;2023-04-09T14:08:35;7.75;;;4.78;;
17193;SDS011;8713;48.388;10.928;2023-04-09T14:10:04;7.78;;;4.78;;
17193;SDS011;8713;48.388;10.928;2023-04-09T14:11:33;7.45;;;5.50;;
17193;SDS011;8713;48.388;10.928;2023-04-09T14:13:01;7.38;;;4.15;;
17193;SDS011;8713;48.388;10.928;2023-04-09T14:14:33;6.95;;;4.57;;
17193;SDS011;8713;48.388;10.928;2023-04-09T14:16:02;8.18;;;5.35;;
17193;SDS011;8713;48.388;10.928;2023-04-09T14:17:33;7.07;;;4.45;;
17193;SDS011;8713;48.388;10.928;2023-04-09T14:19:02;6.40;;;4.30;;
17193;SDS011;8713;48.388;10.928;2023-04-09T14:20:33;7.55;;;4.55;;
17193;SDS011;8713;48.388;10.928;2023-04-09T14:22:02;6.35;;;4.50;;
17193;SDS011;8713;48.388;10.928;2023-04-09T14:23:34;6.82;;;4.75;;
17193;SDS011;8713;48.388;10.928;2023-04-09T14:25:04;8.35;;;4.95;;
17193;SDS011;8713;48.388;10.928;2023-04-09T14:26:34;7.03;;;4.50;;
17193;SDS011;8713;48.388;10.928;2023-04-09T14:28:04;6.27;;;4.13;;
17193;SDS011;8713;48.388;10.928;2023-04-09T14:29:34;5.90;;;4.07;;
17193;SDS011;8713;48.388;10.928;2023-04-09T14:31:03;7.57;;;4.85;;
17193;SDS011;8713;48.388;10.928;2023-04-09T14:32:32;6.55;;;4.22;;
17193;SDS011;8713;48.388;10.928;2023-04-09T14:34:01;24.58;;;12.98;;
17193;SDS011;8713;48.388;10.928;2023-04-09T14:35:29;19.70;;;10.52;;
17193;SDS011;8713;48.388;10.928;2023-04-09T14:36:58;18.00;;;10.57;;
17193;SDS011;8713;48.388;10.928;2023-04-09T14:38:25;10.95;;;7.40;;
17193;SDS011;8713;48.388;10.928;2023-04-09T14:39:55;11.90;;;8.00;;
17193;SDS011;8713;48.388;10.928;2023-04-09T14:41:25;7.47;;;5.55;;
17193;SDS011;8713;48.388;10.928;2023-04-09T14:42:55;8.63;;;5.38;;
17193;SDS011;8713;48.388;10.928;2023-04-09T14:44:24;7.88;;;5.30;;
17193;SDS011;8713;48.388;10.928;2023-04-09T14:45:54;7.63;;;5.13;;
17193;SDS011;8713;48.388;10.928;2023-04-09T14:47:24;8.15;;;4.70;;
17193;SDS011;8713;48.388;10.928;2023-04-09T14:48:52;9.38;;;5.53;;
17193;SDS011;8713;48.388;10.928;2023-04-09T14:50:09;9.70;;;5.50;;
17193;SDS011;8713;48.388;10.928;2023-04-09T14:51:39;8.07;;;5.47;;
17193;SDS011;8713;48.388;10.928;2023-04-09T14:52:59;8.85;;;5.28;;
17193;SDS011;8713;48.388;10.928;2023-04-09T14:54:27;7.32;;;4.80;;
17193;SDS011;8713;48.388;10.928;2023-04-09T14:55:57;6.65;;;4.78;;
17193;SDS011;8713;48.388;10.928;2023-04-09T14:57:25;8.07;;;5.10;;
17193;SDS011;8713;48.388;10.928;2023-04-09T14:58:44;8.30;;;5.43;;
17193;SDS011;8713;48.388;10.928;2023-04-09T15:00:12;6.80;;;4.55;;
17193;SDS011;8713;48.388;10.928;2023-04-09T15:01:40;8.10;;;5.10;;
17193;SDS011;8713;48.388;10.928;2023-04-09T15:03:08;8.10;;;5.10;;
17193;SDS011;8713;48.388;10.928;2023-04-09T15:04:36;9.18;;;5.82;;
17193;SDS011;8713;48.388;10.928;2023-04-09T15:06:04;8.60;;;5.63;;
17193;SDS011;8713;48.388;10.928;2023-04-09T15:07:33;8.00;;;5.10;;
17193;SDS011;8713;48.388;10.928;2023-04-09T15:08:49;8.18;;;5.55;;
17193;SDS011;8713;48.388;10.928;2023-04-09T15:10:17;6.50;;;4.65;;
17193;SDS011;8713;48.388;10.928;2023-04-09T15:11:45;6.45;;;4.57;;
17193;SDS011;8713;48.388;10.928;2023-04-09T15:13:14;6.90;;;4.15;;
17193;SDS011;8713;48.388;10.928;2023-04-09T15:14:43;7.63;;;5.05;;
17193;SDS011;8713;48.388;10.928;2023-04-09T15:16:19;5.93;;;4.20;;
17193;SDS011;8713;48.388;10.928;2023-04-09T15:17:49;5.38;;;3.80;;
17193;SDS011;8713;48.388;10.928;2023-04-09T15:19:18;7.05;;;4.60;;
17193;SDS011;8713;48.388;10.928;2023-04-09T15:20:46;6.85;;;4.18;;
17193;SDS011;8713;48.388;10.928;2023-04-09T15:22:14;6.00;;;3.65;;
17193;SDS011;8713;48.388;10.928;2023-04-09T15:23:43;7.53;;;4.03;;
17193;SDS011;8713;48.388;10.928;2023-04-09T15:25:12;6.80;;;4.55;;
17193;SDS011;8713;48.388;10.928;2023-04-09T15:26:41;8.27;;;4.60;;
17193;SDS011;8713;48.388;10.928;2023-04-09T15:27:56;8.23;;;4.95;;
17193;SDS011;8713;48.388;10.928;2023-04-09T15:29:25;6.45;;;4.05;;
17193;SDS011;8713;48.388;10.928;2023-04-09T15:30:54;7.15;;;4.60;;
17193;SDS011;8713;48.388;10.928;2023-04-09T15:32:22;5.05;;;3.53;;
17193;SDS011;8713;48.388;10.928;2023-04-09T15:33:51;7.60;;;4.32;;
17193;SDS011;8713;48.388;10.928;2023-04-09T15:35:19;7.22;;;4.18;;
17193;SDS011;8713;48.388;10.928;2023-04-09T15:36:51;5.68;;;4.30;;
17193;SDS011;8713;48.388;10.928;2023-04-09T15:38:19;6.88;;;4.70;;